createdAt,value
2023-03-26T04:41:38.710Z,9.75
2023-03-26T04:42:46.269Z,9.95
2023-03-26T04:43:50.583Z,9.70
2023-03-26T04:44:52.810Z,9.48
2023-03-26T04:45:56.521Z,9.80
2023-03-26T04:46:58.971Z,10.00
2023-03-26T04:48:02.384Z,9.52
2023-03-26T04:49:04.881Z,9.82
2023-03-26T04:50:09.700Z,9.77
2023-03-26T04:51:18.030Z,9.45
2023-03-26T04:52:20.278Z,10.00
2023-03-26T04:53:22.727Z,10.30
2023-03-26T04:54:24.845Z,9.77
2023-03-26T04:55:33.192Z,10.23
2023-03-26T04:56:43.471Z,10.88
2023-03-26T04:57:49.648Z,9.53
2023-03-26T04:58:51.915Z,9.93
2023-03-26T04:59:54.062Z,10.55
2023-03-26T05:01:01.171Z,11.13
2023-03-26T05:02:13.140Z,10.48
2023-03-26T05:03:15.637Z,9.93
2023-03-26T05:04:17.863Z,11.13
2023-03-26T05:05:20.366Z,9.93
2023-03-26T05:06:22.548Z,11.15
2023-03-26T05:07:24.669Z,11.77
2023-03-26T05:08:28.837Z,10.90
2023-03-26T05:09:31.385Z,11.23
2023-03-26T05:10:33.597Z,11.73
2023-03-26T05:11:35.678Z,10.82
2023-03-26T05:12:37.796Z,11.60
2023-03-26T05:13:42.866Z,10.38
2023-03-26T05:14:45.096Z,10.23
2023-03-26T05:15:47.265Z,11.38
2023-03-26T05:16:53.353Z,9.93
2023-03-26T05:17:56.109Z,9.77
2023-03-26T05:18:58.587Z,10.18
2023-03-26T05:20:00.870Z,10.32
2023-03-26T05:21:03.734Z,9.10
2023-03-26T05:22:06.205Z,9.60
2023-03-26T05:23:08.329Z,9.70
2023-03-26T05:24:10.643Z,8.15
2023-03-26T05:25:13.088Z,8.68
2023-03-26T05:26:15.654Z,8.75
2023-03-26T05:27:20.201Z,8.82
2023-03-26T05:28:24.693Z,8.15
2023-03-26T05:29:27.174Z,8.23
2023-03-26T05:30:31.183Z,8.80
2023-03-26T05:31:33.394Z,8.40
2023-03-26T05:32:38.196Z,8.82
2023-03-26T05:33:40.456Z,7.72
2023-03-26T05:34:42.632Z,8.20
2023-03-26T05:35:44.852Z,8.38
2023-03-26T05:36:47.103Z,8.63
2023-03-26T05:37:51.516Z,7.88
2023-03-26T05:38:53.677Z,7.95
2023-03-26T05:39:55.860Z,7.78
2023-03-26T05:40:59.662Z,7.40
2023-03-26T05:42:02.032Z,7.90
2023-03-26T05:43:04.516Z,8.18
2023-03-26T05:44:06.716Z,7.90
2023-03-26T05:45:11.247Z,7.72
2023-03-26T05:46:13.829Z,7.20
2023-03-26T05:47:16.179Z,6.93
2023-03-26T05:48:20.936Z,7.13
2023-03-26T05:49:23.071Z,6.82
2023-03-26T05:50:25.511Z,7.28
2023-03-26T05:51:27.612Z,7.68
2023-03-26T05:52:29.760Z,7.15
2023-03-26T05:53:32.320Z,6.43
2023-03-26T05:54:34.483Z,6.72
2023-03-26T05:55:36.564Z,6.53
2023-03-26T05:56:38.733Z,6.93
2023-03-26T05:57:41.999Z,6.63
2023-03-26T05:58:44.153Z,7.32
2023-03-26T05:59:46.240Z,8.93
2023-03-26T06:00:48.914Z,7.57
2023-03-26T06:01:51.142Z,7.25
2023-03-26T06:02:56.563Z,6.90
2023-03-26T06:04:00.944Z,6.53
2023-03-26T06:05:05.705Z,6.95
2023-03-26T06:06:09.196Z,6.20
2023-03-26T06:07:11.548Z,5.47
2023-03-26T06:08:13.742Z,6.45
2023-03-26T06:09:17.009Z,5.93
2023-03-26T06:10:19.364Z,6.68
2023-03-26T06:11:21.874Z,6.47
2023-03-26T06:12:23.944Z,6.55
2023-03-26T06:13:26.179Z,6.30
2023-03-26T06:14:28.400Z,5.72
2023-03-26T06:15:30.695Z,5.68
2023-03-26T06:16:35.284Z,6.20
2023-03-26T06:17:37.699Z,5.75
2023-03-26T06:18:40.318Z,6.28
2023-03-26T06:19:43.948Z,6.40
2023-03-26T06:20:46.119Z,6.30
2023-03-26T06:21:48.522Z,5.78
2023-03-26T06:22:50.941Z,6.53
2023-03-26T06:23:53.456Z,5.70
2023-03-26T06:24:56.281Z,6.15
2023-03-26T06:25:58.811Z,5.75
2023-03-26T06:27:01.068Z,6.10
2023-03-26T06:28:03.195Z,6.43
2023-03-26T06:29:06.037Z,5.97
2023-03-26T06:30:09.423Z,6.05
2023-03-26T06:31:12.091Z,6.68
2023-03-26T06:32:20.042Z,6.03
2023-03-26T06:33:24.512Z,6.53
2023-03-26T06:34:27.075Z,5.88
2023-03-26T06:35:30.889Z,6.07
2023-03-26T06:36:33.187Z,5.20
2023-03-26T06:37:35.436Z,5.30
2023-03-26T06:38:37.734Z,6.85
2023-03-26T06:39:39.999Z,6.35
2023-03-26T06:40:42.367Z,6.80
2023-03-26T06:41:44.444Z,6.80
2023-03-26T06:43:08.737Z,6.30
2023-03-26T06:44:08.930Z,6.75
2023-03-26T06:45:11.416Z,6.40
2023-03-26T06:46:14.057Z,6.03
2023-03-26T06:47:16.258Z,5.60
2023-03-26T06:48:18.507Z,6.35
2023-03-26T06:49:21.031Z,5.85
2023-03-26T06:50:23.415Z,6.80
2023-03-26T06:51:27.064Z,7.13
2023-03-26T06:52:31.475Z,6.43
2023-03-26T06:53:33.666Z,6.50
2023-03-26T06:54:35.857Z,6.13
2023-03-26T06:55:38.819Z,6.28
2023-03-26T06:56:41.226Z,5.90
2023-03-26T06:57:45.333Z,5.53
2023-03-26T06:58:47.513Z,5.80
2023-03-26T06:59:49.649Z,5.03
2023-03-26T07:00:54.514Z,6.15
2023-03-26T07:01:56.954Z,5.82
2023-03-26T07:02:59.092Z,6.00
2023-03-26T07:04:01.441Z,5.60
2023-03-26T07:05:04.248Z,6.00
2023-03-26T07:06:07.133Z,5.75
2023-03-26T07:07:13.434Z,5.40
2023-03-26T07:08:17.831Z,5.35
2023-03-26T07:09:20.043Z,5.40
2023-03-26T07:10:22.236Z,5.68
2023-03-26T07:11:27.064Z,5.60
2023-03-26T07:12:31.620Z,5.68
2023-03-26T07:13:33.974Z,5.70
2023-03-26T07:14:39.129Z,5.70
2023-03-26T07:15:41.388Z,6.15
2023-03-26T07:16:43.562Z,5.45
2023-03-26T07:17:45.932Z,5.75
2023-03-26T07:18:48.399Z,6.68
2023-03-26T07:19:52.836Z,5.90
2023-03-26T07:20:55.969Z,6.30
2023-03-26T07:21:58.958Z,6.22
2023-03-26T07:23:02.928Z,8.95
2023-03-26T07:24:06.077Z,5.88
2023-03-26T07:25:10.021Z,6.05
2023-03-26T07:26:27.200Z,6.18
2023-03-26T07:27:37.588Z,5.80
2023-03-26T07:29:04.650Z,6.68
2023-03-26T07:30:12.432Z,5.63
2023-03-26T07:31:27.303Z,5.78
2023-03-26T07:32:36.581Z,6.05
2023-03-26T07:33:46.932Z,5.70
2023-03-26T07:34:55.159Z,5.50
2023-03-26T07:36:09.285Z,6.22
2023-03-26T07:37:26.923Z,5.45
2023-03-26T07:38:44.157Z,5.90
2023-03-26T07:39:54.942Z,6.05
2023-03-26T07:41:05.816Z,6.97
2023-03-26T07:42:23.466Z,6.68
2023-03-26T07:43:37.567Z,6.15
2023-03-26T07:44:51.463Z,6.35
2023-03-26T07:45:54.980Z,6.18
2023-03-26T07:46:59.668Z,6.60
2023-03-26T07:48:04.552Z,6.05
2023-03-26T07:49:09.753Z,6.18
2023-03-26T07:50:19.072Z,6.05
2023-03-26T07:51:21.889Z,6.63
2023-03-26T07:52:24.877Z,7.50
2023-03-26T07:53:27.282Z,6.57
2023-03-26T07:54:31.355Z,6.78
2023-03-26T07:55:36.299Z,6.70
2023-03-26T07:56:42.256Z,6.40
2023-03-26T07:57:54.954Z,6.32
2023-03-26T07:59:06.713Z,6.10
2023-03-26T08:00:15.271Z,5.20
2023-03-26T08:01:24.927Z,5.15
2023-03-26T08:02:42.165Z,5.15
2023-03-26T08:04:23.758Z,5.40
2023-03-26T08:05:32.491Z,4.30
2023-03-26T08:06:36.570Z,5.15
2023-03-26T08:07:53.339Z,4.70
2023-03-26T08:09:02.519Z,5.13
2023-03-26T08:10:12.428Z,4.70
2023-03-26T08:11:28.477Z,5.20
2023-03-26T08:12:39.071Z,5.40
2023-03-26T08:13:54.349Z,5.13
2023-03-26T08:15:08.101Z,4.65
2023-03-26T08:16:17.131Z,5.78
2023-03-26T08:17:26.230Z,5.40
2023-03-26T08:18:41.300Z,5.85
2023-03-26T08:20:06.021Z,5.15
2023-03-26T08:21:14.095Z,5.38
2023-03-26T08:22:26.279Z,5.55
2023-03-26T08:23:35.753Z,4.22
2023-03-26T08:25:08.149Z,4.00
2023-03-26T08:26:17.797Z,4.78
2023-03-26T08:27:25.430Z,5.03
2023-03-26T08:28:37.948Z,4.70
2023-03-26T08:29:50.001Z,5.00
2023-03-26T08:30:55.220Z,5.57
2023-03-26T08:31:58.032Z,6.20
2023-03-26T08:33:04.991Z,5.95
2023-03-26T08:34:11.103Z,5.75
2023-03-26T08:35:14.112Z,6.45
2023-03-26T08:36:16.213Z,6.50
2023-03-26T08:37:18.414Z,6.35
2023-03-26T08:38:21.027Z,6.13
2023-03-26T08:39:25.686Z,6.50
2023-03-26T08:41:06.580Z,5.47
2023-03-26T08:42:56.758Z,5.05
2023-03-26T08:44:47.850Z,4.50
2023-03-26T08:46:15.947Z,5.28
2023-03-26T08:47:55.767Z,4.53
2023-03-26T08:49:24.894Z,4.60
2023-03-26T08:50:54.681Z,4.00
2023-03-26T08:52:31.336Z,3.85
2023-03-26T08:54:03.523Z,3.83
2023-03-26T08:55:38.253Z,3.90
2023-03-26T08:56:51.578Z,3.30
2023-03-26T08:58:34.980Z,2.83
2023-03-26T09:00:06.708Z,3.25
2023-03-26T09:02:52.700Z,3.35
2023-03-26T09:04:24.706Z,3.55
2023-03-26T09:06:05.233Z,3.42
2023-03-26T09:07:47.172Z,3.97
2023-03-26T09:09:38.195Z,3.20
2023-03-26T09:10:51.771Z,3.13
2023-03-26T09:12:27.549Z,3.50
2023-03-26T09:14:05.270Z,3.38
2023-03-26T09:15:33.947Z,2.97
2023-03-26T09:16:57.277Z,3.83
2023-03-26T09:18:22.236Z,3.63
2023-03-26T09:19:59.495Z,3.60
2023-03-26T09:21:26.317Z,3.25
2023-03-26T09:23:14.982Z,3.40
2023-03-26T09:24:54.121Z,2.90
2023-03-26T09:26:32.794Z,2.88
2023-03-26T09:27:38.419Z,3.28
2023-03-26T09:29:32.984Z,3.35
2023-03-26T09:31:00.263Z,2.83
2023-03-26T09:32:47.175Z,2.90
2023-03-26T09:33:59.438Z,2.80
2023-03-26T09:35:26.019Z,3.00
2023-03-26T09:36:54.529Z,2.80
2023-03-26T09:38:02.789Z,3.20
2023-03-26T09:39:16.539Z,2.55
2023-03-26T09:40:22.584Z,2.30
2023-03-26T09:41:38.208Z,2.85
2023-03-26T09:42:45.781Z,2.70
2023-03-26T09:44:14.897Z,2.47
2023-03-26T09:45:32.085Z,2.60
2023-03-26T09:46:44.482Z,2.90
2023-03-26T09:48:05.646Z,2.50
2023-03-26T09:49:30.371Z,2.50
2023-03-26T09:50:48.923Z,2.65
2023-03-26T09:52:20.263Z,2.40
2023-03-26T09:53:59.456Z,2.47
2023-03-26T09:55:42.835Z,2.08
2023-03-26T09:56:53.730Z,2.30
2023-03-26T09:58:28.351Z,2.00
2023-03-26T09:59:54.662Z,2.58
2023-03-26T10:01:05.875Z,2.80
2023-03-26T10:02:46.348Z,2.50
2023-03-26T10:04:00.987Z,2.30
2023-03-26T10:05:22.906Z,3.75
2023-03-26T10:06:37.332Z,2.63
2023-03-26T10:07:52.132Z,2.60
2023-03-26T10:09:20.869Z,2.10
2023-03-26T10:10:31.853Z,1.83
2023-03-26T10:12:00.748Z,2.00
2023-03-26T10:13:14.876Z,1.70
2023-03-26T10:14:22.921Z,2.08
2023-03-26T10:15:41.270Z,1.70
2023-03-26T10:16:56.123Z,2.05
2023-03-26T10:18:26.735Z,1.80
2023-03-26T10:20:56.753Z,2.95
2023-03-26T10:22:06.342Z,2.97
2023-03-26T10:23:21.586Z,3.30
2023-03-26T10:24:36.603Z,3.10
2023-03-26T10:26:00.140Z,3.10
2023-03-26T10:27:14.330Z,4.10
2023-03-26T10:28:37.575Z,4.35
2023-03-26T10:30:15.436Z,4.05
2023-03-26T10:31:35.542Z,3.22
2023-03-26T10:32:47.040Z,2.53
2023-03-26T10:34:00.527Z,1.95
2023-03-26T10:35:12.685Z,1.30
2023-03-26T10:36:33.796Z,1.10
2023-03-26T10:37:54.682Z,1.30
2023-03-26T10:39:36.183Z,1.00
2023-03-26T10:41:01.486Z,1.08
2023-03-26T10:42:40.420Z,1.25
2023-03-26T10:49:16.912Z,2.63
2023-03-26T10:50:57.839Z,2.80
2023-03-26T10:52:07.017Z,2.33
2023-03-26T10:53:18.977Z,2.67
2023-03-26T10:54:35.503Z,2.80
2023-03-26T10:55:39.377Z,2.45
2023-03-26T10:56:45.970Z,2.60
2023-03-26T10:57:52.731Z,1.40
2023-03-26T10:58:56.915Z,0.70
2023-03-26T11:00:06.170Z,0.95
2023-03-26T11:01:16.326Z,1.60
2023-03-26T11:02:30.631Z,1.25
2023-03-26T11:03:52.038Z,1.00
2023-03-26T11:05:09.700Z,0.90
2023-03-26T11:06:31.368Z,0.98
2023-03-26T11:07:40.771Z,1.20
2023-03-26T11:08:48.595Z,0.88
2023-03-26T11:09:57.435Z,0.80
2023-03-26T11:11:09.279Z,1.20
2023-03-26T11:12:26.584Z,1.00
2023-03-26T11:13:43.485Z,0.50
2023-03-26T11:14:56.427Z,1.70
2023-03-26T11:16:03.230Z,0.80
2023-03-26T11:17:39.138Z,0.90
2023-03-26T11:18:45.352Z,0.30
2023-03-26T11:19:53.191Z,0.10
2023-03-26T11:21:18.819Z,0.40
2023-03-26T11:22:33.064Z,0.65
2023-03-26T11:23:40.320Z,1.35
2023-03-26T11:25:06.659Z,1.77
2023-03-26T11:26:14.052Z,1.02
2023-03-26T11:27:26.446Z,1.48
2023-03-26T11:29:03.503Z,1.52
2023-03-26T11:30:17.254Z,2.42
2023-03-26T11:31:27.678Z,2.10
2023-03-26T11:32:39.238Z,2.27
2023-03-26T11:33:47.731Z,1.48
2023-03-26T11:34:58.471Z,1.83
2023-03-26T11:36:06.113Z,2.00
2023-03-26T11:37:17.629Z,1.20
2023-03-26T11:38:24.703Z,0.98
2023-03-26T11:39:31.334Z,0.40
2023-03-26T11:40:37.227Z,0.40
2023-03-26T11:41:39.763Z,0.63
2023-03-26T11:42:43.562Z,1.00
2023-03-26T11:43:50.413Z,0.95
2023-03-26T11:44:56.076Z,1.30
2023-03-26T11:45:58.841Z,0.93
2023-03-26T11:47:05.299Z,0.90
2023-03-26T11:48:12.813Z,1.40
2023-03-26T11:49:18.661Z,1.20
2023-03-26T11:50:25.233Z,1.10
2023-03-26T11:51:32.773Z,1.17
2023-03-26T11:52:34.895Z,1.90
2023-03-26T11:53:38.811Z,1.38
2023-03-26T11:54:43.476Z,1.10
2023-03-26T11:55:50.388Z,1.13
2023-03-26T11:57:04.793Z,1.13
2023-03-26T11:58:25.469Z,1.13
2023-03-26T11:59:31.311Z,2.30
2023-03-26T12:00:35.991Z,1.42
2023-03-26T12:01:44.414Z,0.90
2023-03-26T12:02:48.260Z,1.30
2023-03-26T12:04:05.370Z,1.40
2023-03-26T12:05:20.347Z,1.20
2023-03-26T12:06:25.745Z,2.00
2023-03-26T12:07:32.644Z,1.63
2023-03-26T12:08:39.419Z,1.85
2023-03-26T12:09:52.077Z,2.30
2023-03-26T12:11:03.789Z,1.80
2023-03-26T12:12:06.852Z,2.30
2023-03-26T12:13:28.256Z,2.00
2023-03-26T12:14:34.062Z,2.00
2023-03-26T12:15:43.925Z,2.22
2023-03-26T12:17:00.756Z,1.95
2023-03-26T12:18:19.931Z,2.15
2023-03-26T12:19:24.355Z,2.40
2023-03-26T12:20:36.769Z,2.20
2023-03-26T12:21:46.227Z,2.65
2023-03-26T12:22:48.604Z,2.42
2023-03-26T12:24:00.066Z,2.00
2023-03-26T12:25:19.128Z,2.42
2023-03-26T12:26:31.741Z,2.35
2023-03-26T12:27:33.981Z,2.15
2023-03-26T12:28:36.171Z,1.85
2023-03-26T12:29:38.330Z,2.10
2023-03-26T12:30:42.373Z,1.20
2023-03-26T12:31:52.121Z,1.50
2023-03-26T12:32:58.176Z,1.63
2023-03-26T12:34:13.532Z,1.48
2023-03-26T12:35:26.731Z,1.85
2023-03-26T12:36:33.559Z,2.10
2023-03-26T12:37:37.522Z,1.60
2023-03-26T12:38:40.741Z,1.50
2023-03-26T12:40:09.489Z,1.35
2023-03-26T12:44:43.119Z,1.60
2023-03-26T12:44:47.593Z,1.40
2023-03-26T12:44:54.972Z,1.70
2023-03-26T12:45:20.139Z,1.60
2023-03-26T12:47:56.294Z,1.67
2023-03-26T12:48:00.905Z,1.83
2023-03-26T12:49:07.043Z,1.27
2023-03-26T12:50:15.560Z,1.65
2023-03-26T12:51:31.724Z,1.45
2023-03-26T12:52:47.484Z,1.48
2023-03-26T12:54:07.112Z,1.38
2023-03-26T12:55:24.152Z,1.60
2023-03-26T12:56:42.032Z,1.15
2023-03-26T12:57:52.951Z,1.65
2023-03-26T12:59:18.483Z,1.95
2023-03-26T13:00:28.915Z,1.70
2023-03-26T13:01:40.838Z,1.80
2023-03-26T13:02:58.951Z,1.70
2023-03-26T13:04:10.874Z,1.70
2023-03-26T13:05:30.372Z,1.02
2023-03-26T13:06:59.810Z,2.20
2023-03-26T13:08:39.527Z,1.10
2023-03-26T13:10:10.558Z,1.30
2023-03-26T13:11:18.575Z,1.10
2023-03-26T13:12:40.919Z,0.82
2023-03-26T13:14:04.862Z,1.00
2023-03-26T13:15:22.649Z,0.95
2023-03-26T13:16:31.045Z,1.45
2023-03-26T13:17:39.674Z,1.75
2023-03-26T13:18:50.752Z,1.83
2023-03-26T13:20:01.204Z,1.88
2023-03-26T13:21:09.980Z,1.70
2023-03-26T13:22:22.412Z,1.42
2023-03-26T13:23:33.483Z,1.17
2023-03-26T13:25:54.493Z,1.40
2023-03-26T13:27:06.265Z,1.48
2023-03-26T13:28:21.628Z,1.77
2023-03-26T13:29:31.394Z,1.50
2023-03-26T13:30:41.559Z,1.65
2023-03-26T13:31:49.996Z,1.45
2023-03-26T13:33:06.844Z,1.30
2023-03-26T13:34:18.722Z,1.85
2023-03-26T13:35:30.083Z,1.27
2023-03-26T13:36:46.573Z,1.10
2023-03-26T13:37:55.555Z,1.60
2023-03-26T13:39:09.481Z,1.20
2023-03-26T13:40:24.885Z,1.73
2023-03-26T13:41:38.187Z,1.20
2023-03-26T13:42:51.086Z,1.15
2023-03-26T13:44:06.204Z,1.33
2023-03-26T13:45:24.177Z,1.88
2023-03-26T13:46:32.258Z,1.38
2023-03-26T13:47:37.771Z,2.08
2023-03-26T13:48:47.443Z,1.58
2023-03-26T13:49:53.884Z,1.40
2023-03-26T13:51:01.886Z,1.27
2023-03-26T13:52:08.283Z,1.85
2023-03-26T13:53:17.876Z,1.80
2023-03-26T13:54:26.147Z,2.40
2023-03-26T13:55:32.437Z,1.77
2023-03-26T13:56:38.846Z,0.98
2023-03-26T13:57:46.256Z,0.80
2023-03-26T13:58:52.475Z,1.30
2023-03-26T14:00:00.580Z,0.93
2023-03-26T14:01:09.775Z,1.00
2023-03-26T14:02:18.223Z,0.80
2023-03-26T14:03:26.876Z,0.82
2023-03-26T14:04:33.249Z,1.00
2023-03-26T14:05:39.568Z,1.40
2023-03-26T14:06:47.192Z,2.20
2023-03-26T14:07:53.463Z,0.90
2023-03-26T14:09:02.818Z,1.08
2023-03-26T14:10:10.230Z,0.80
2023-03-26T14:11:17.898Z,1.00
2023-03-26T14:12:29.380Z,1.00
2023-03-26T14:13:36.431Z,1.00
2023-03-26T14:14:47.261Z,1.20
2023-03-26T14:15:57.345Z,1.80
2023-03-26T14:17:05.596Z,1.40
2023-03-26T14:18:31.424Z,1.55
2023-03-26T14:20:07.413Z,1.50
2023-03-26T14:21:35.890Z,1.60
2023-03-26T14:22:52.525Z,1.77
2023-03-26T14:24:13.264Z,1.52
2023-03-26T14:25:25.220Z,1.30
2023-03-26T14:26:53.629Z,1.35
2023-03-26T14:28:09.799Z,1.10
2023-03-26T14:29:29.818Z,1.02
2023-03-26T14:30:58.299Z,0.90
2023-03-26T14:32:24.602Z,1.48
2023-03-26T14:33:42.641Z,3.17
2023-03-26T14:35:01.043Z,5.10
2023-03-26T14:36:10.249Z,1.60
2023-03-26T14:37:31.398Z,1.15
2023-03-26T14:38:52.409Z,3.20
2023-03-26T14:40:28.078Z,1.55
2023-03-26T14:41:38.810Z,2.30
2023-03-26T14:42:44.529Z,2.90
2023-03-26T14:44:05.736Z,4.55
2023-03-26T14:45:44.974Z,4.13
2023-03-26T14:47:04.598Z,5.05
2023-03-26T14:48:37.562Z,4.40
2023-03-26T14:50:06.660Z,5.28
2023-03-26T14:51:21.589Z,5.63
2023-03-26T14:52:37.020Z,5.88
2023-03-26T14:53:44.340Z,5.30
2023-03-26T14:54:51.918Z,5.50
2023-03-26T14:56:31.282Z,6.30
2023-03-26T14:57:54.398Z,5.40
2023-03-26T14:59:26.014Z,5.10
2023-03-26T15:01:10.918Z,4.70
2023-03-26T15:03:03.875Z,5.55
2023-03-26T15:04:47.266Z,6.35
2023-03-26T15:06:25.447Z,4.82
2023-03-26T15:07:48.106Z,6.70
2023-03-26T15:09:29.693Z,9.05
2023-03-26T15:10:58.043Z,5.00
2023-03-26T15:12:12.795Z,5.07
2023-03-26T15:13:51.711Z,3.15
2023-03-26T15:15:26.695Z,2.60
2023-03-26T15:17:09.589Z,2.92
2023-03-26T15:18:43.586Z,2.92
2023-03-26T15:20:26.130Z,3.08
2023-03-26T15:22:05.222Z,3.25
2023-03-26T15:23:52.187Z,4.03
2023-03-26T15:25:29.560Z,4.50
2023-03-26T15:27:26.863Z,7.03
2023-03-26T15:29:01.105Z,6.43
2023-03-26T15:30:32.917Z,8.70
2023-03-26T15:32:11.090Z,14.00
2023-03-26T15:33:43.908Z,13.95
2023-03-26T15:35:25.769Z,4.82
2023-03-26T15:38:17.947Z,2.75
2023-03-26T15:39:59.737Z,2.83
2023-03-26T15:41:16.625Z,2.63
2023-03-26T15:42:28.296Z,2.53
2023-03-26T15:44:24.615Z,3.10
2023-03-26T15:45:33.672Z,2.50
2023-03-26T15:46:56.892Z,2.92
2023-03-26T15:48:23.058Z,4.88
2023-03-26T15:49:35.917Z,6.22
2023-03-26T15:50:51.586Z,5.95
2023-03-26T15:51:58.939Z,5.50
2023-03-26T15:53:15.000Z,4.43
2023-03-26T15:54:23.928Z,3.28
2023-03-26T15:55:34.292Z,3.58
2023-03-26T15:56:55.811Z,3.20
2023-03-26T15:58:05.604Z,2.97
2023-03-26T15:59:23.596Z,3.83
2023-03-26T16:00:29.126Z,5.28
2023-03-26T16:01:46.586Z,9.10
2023-03-26T16:03:09.897Z,5.05
2023-03-26T16:04:24.956Z,7.35
2023-03-26T16:05:37.332Z,6.65
2023-03-26T16:06:48.755Z,6.32
2023-03-26T16:08:03.015Z,41.75
2023-03-26T16:09:23.805Z,7.45
2023-03-26T16:10:33.854Z,7.78
2023-03-26T16:11:53.759Z,7.35
2023-03-26T16:13:23.423Z,6.57
2023-03-26T16:14:42.982Z,6.88
2023-03-26T16:15:53.322Z,7.15
2023-03-26T16:16:57.782Z,7.05
2023-03-26T16:18:31.949Z,7.47
2023-03-26T16:19:48.396Z,6.65
2023-03-26T16:20:54.280Z,6.82
2023-03-26T16:22:00.351Z,6.30
2023-03-26T16:23:06.256Z,5.90
2023-03-26T16:24:28.104Z,6.38
2023-03-26T16:25:33.303Z,5.88
2023-03-26T16:26:40.164Z,5.75
2023-03-26T16:27:43.136Z,5.60
2023-03-26T16:29:15.296Z,6.32
2023-03-26T16:30:31.596Z,7.30
2023-03-26T16:31:38.716Z,6.30
2023-03-26T16:32:42.178Z,5.68
2023-03-26T16:33:49.796Z,5.38
2023-03-26T16:34:55.408Z,5.72
2023-03-26T16:36:07.299Z,6.47
2023-03-26T16:37:36.354Z,7.03
2023-03-26T16:39:11.645Z,7.03
2023-03-26T16:40:34.450Z,6.13
2023-03-26T16:41:56.488Z,5.60
2023-03-26T16:43:51.897Z,4.78
2023-03-26T16:45:06.633Z,4.35
2023-03-26T16:46:17.091Z,4.57
2023-03-26T16:47:26.258Z,4.00
2023-03-26T16:48:36.061Z,4.93
2023-03-26T16:50:07.547Z,6.13
2023-03-26T16:51:21.916Z,6.30
2023-03-26T16:52:36.595Z,7.95
2023-03-26T16:53:46.681Z,10.05
2023-03-26T16:54:52.666Z,9.50
2023-03-26T16:56:02.842Z,8.77
2023-03-26T16:57:18.406Z,9.02
2023-03-26T16:58:30.964Z,8.93
2023-03-26T17:00:24.408Z,8.23
2023-03-26T17:01:41.556Z,9.60
2023-03-26T17:03:00.005Z,9.20
2023-03-26T17:04:07.223Z,10.35
2023-03-26T17:05:21.247Z,9.20
2023-03-26T17:07:14.062Z,8.57
2023-03-26T17:08:35.661Z,8.10
2023-03-26T17:09:52.023Z,9.75
2023-03-26T17:11:03.576Z,10.10
2023-03-26T17:12:14.862Z,13.23
2023-03-26T17:14:35.643Z,7.70
2023-03-26T17:15:48.229Z,7.95
2023-03-26T17:17:16.887Z,8.68
2023-03-26T17:18:37.515Z,4.97
2023-03-26T17:19:48.126Z,2.65
2023-03-26T17:20:59.686Z,2.03
2023-03-26T17:22:06.251Z,1.58
2023-03-26T17:23:25.746Z,1.90
2023-03-26T17:24:39.133Z,1.60
2023-03-26T17:25:53.266Z,2.70
2023-03-26T17:27:03.334Z,1.63
2023-03-26T17:28:22.410Z,1.85
2023-03-26T17:29:29.079Z,1.73
2023-03-26T17:30:51.623Z,1.98
2023-03-26T17:32:00.196Z,2.78
2023-03-26T17:33:14.162Z,5.55
2023-03-26T17:34:55.017Z,6.82
2023-03-26T17:36:28.205Z,5.22
2023-03-26T17:37:41.080Z,5.75
2023-03-26T17:39:20.588Z,3.78
2023-03-26T17:40:46.525Z,4.22
2023-03-26T17:42:03.285Z,3.42
2023-03-26T17:43:12.443Z,2.90
2023-03-26T17:44:43.147Z,2.67
2023-03-26T17:45:47.132Z,2.50
2023-03-26T17:47:13.269Z,3.50
2023-03-26T17:48:20.560Z,3.35
2023-03-26T17:49:29.391Z,2.70
2023-03-26T17:50:34.735Z,3.15
2023-03-26T17:51:46.533Z,2.50
2023-03-26T17:52:55.673Z,2.65
2023-03-26T17:53:58.511Z,3.15
2023-03-26T17:55:02.224Z,2.90
2023-03-26T17:56:07.018Z,2.30
2023-03-26T17:57:16.703Z,2.65
2023-03-26T17:58:27.108Z,4.30
2023-03-26T17:59:31.856Z,5.60
2023-03-26T18:00:40.052Z,11.48
2023-03-26T18:01:46.264Z,27.08
2023-03-26T18:02:54.177Z,39.22
2023-03-26T18:04:00.113Z,38.47
2023-03-26T18:05:06.161Z,23.65
2023-03-26T18:06:13.046Z,20.83
2023-03-26T18:07:59.834Z,13.73
2023-03-26T18:09:15.772Z,10.98
2023-03-26T18:10:33.482Z,7.45
2023-03-26T18:11:59.975Z,5.22
2023-03-26T18:13:28.954Z,7.30
2023-03-26T18:14:58.157Z,7.50
2023-03-26T18:16:12.612Z,8.50
2023-03-26T18:17:15.036Z,7.18
2023-03-26T18:18:20.622Z,4.38
2023-03-26T18:19:23.463Z,3.90
2023-03-26T18:20:28.303Z,3.60
2023-03-26T18:21:34.911Z,3.30
2023-03-26T18:22:37.187Z,3.70
2023-03-26T18:23:45.078Z,5.32
2023-03-26T18:24:48.020Z,4.00
2023-03-26T18:25:57.108Z,7.38
2023-03-26T18:27:03.141Z,15.20
2023-03-26T18:28:06.108Z,10.55
2023-03-26T18:29:20.151Z,13.70
2023-03-26T18:30:23.616Z,12.90
2023-03-26T18:31:26.892Z,14.00
2023-03-26T18:32:40.965Z,8.13
2023-03-26T18:33:44.166Z,7.68
2023-03-26T18:34:50.080Z,6.72
2023-03-26T18:35:55.633Z,7.00
2023-03-26T18:37:15.070Z,7.50
2023-03-26T18:38:35.442Z,5.57
2023-03-26T18:39:40.685Z,5.25
2023-03-26T18:40:45.613Z,4.68
2023-03-26T18:41:47.920Z,4.88
2023-03-26T18:42:52.493Z,8.45
2023-03-26T18:43:55.573Z,9.98
2023-03-26T18:45:04.652Z,15.30
2023-03-26T18:46:07.389Z,17.73
2023-03-26T18:47:12.091Z,18.45
2023-03-26T18:48:19.249Z,21.60
2023-03-26T18:49:22.237Z,21.10
2023-03-26T18:50:27.937Z,16.80
2023-03-26T18:51:31.977Z,12.45
2023-03-26T18:52:34.251Z,11.25
2023-03-26T18:53:39.359Z,11.60
2023-03-26T18:54:42.732Z,11.43
2023-03-26T18:55:44.912Z,11.68
2023-03-26T18:56:48.265Z,10.98
2023-03-26T18:57:51.691Z,10.38
2023-03-26T18:59:00.150Z,9.88
2023-03-26T19:00:18.495Z,10.95
2023-03-26T19:01:25.938Z,13.80
2023-03-26T19:02:29.308Z,16.90
2023-03-26T19:03:35.631Z,13.20
2023-03-26T19:04:38.187Z,14.88
2023-03-26T19:05:41.563Z,14.55
2023-03-26T19:06:45.083Z,12.98
2023-03-26T19:07:47.875Z,12.75
2023-03-26T19:08:50.875Z,12.55
2023-03-26T19:09:56.300Z,12.75
2023-03-26T19:11:02.198Z,12.35
2023-03-26T19:12:09.269Z,13.02
2023-03-26T19:13:14.566Z,15.23
2023-03-26T19:14:19.227Z,15.93
2023-03-26T19:15:25.037Z,14.80
2023-03-26T19:16:34.017Z,13.93
2023-03-26T19:17:41.054Z,15.02
2023-03-26T19:18:44.216Z,16.33
2023-03-26T19:19:46.824Z,16.70
2023-03-26T19:20:51.488Z,14.43
2023-03-26T19:21:59.086Z,15.23
2023-03-26T19:23:01.969Z,14.48
2023-03-26T19:24:05.504Z,14.00
2023-03-26T19:25:20.417Z,14.68
2023-03-26T19:26:22.629Z,14.50
2023-03-26T19:27:26.619Z,14.15
2023-03-26T19:28:32.814Z,14.25
2023-03-26T19:29:36.268Z,13.95
2023-03-26T19:30:44.034Z,14.57
2023-03-26T19:31:51.332Z,15.30
2023-03-26T19:32:54.089Z,15.10
2023-03-26T19:33:58.752Z,13.65
2023-03-26T19:35:02.288Z,13.38
2023-03-26T19:36:15.022Z,14.63
2023-03-26T19:37:20.724Z,14.50
2023-03-26T19:38:25.653Z,14.48
2023-03-26T19:39:39.119Z,15.05
2023-03-26T19:40:43.307Z,19.92
2023-03-26T19:41:51.274Z,17.45
2023-03-26T19:42:53.405Z,18.10
2023-03-26T19:43:58.258Z,18.50
2023-03-26T19:45:02.249Z,17.83
2023-03-26T19:46:05.988Z,21.42
2023-03-26T19:47:15.981Z,21.10
2023-03-26T19:48:20.462Z,22.33
2023-03-26T19:49:49.977Z,22.90
2023-03-26T19:51:00.543Z,25.88
2023-03-26T19:52:12.575Z,28.38
2023-03-26T19:53:22.498Z,29.92
2023-03-26T19:54:25.218Z,31.98
2023-03-26T19:55:29.266Z,34.83
2023-03-26T19:56:31.876Z,33.30
2023-03-26T19:57:37.844Z,26.65
2023-03-26T19:58:41.290Z,26.38
2023-03-26T19:59:43.468Z,27.95
2023-03-26T20:00:53.799Z,30.77
2023-03-26T20:01:57.597Z,26.83
2023-03-26T20:02:59.930Z,28.02
2023-03-26T20:04:04.800Z,27.42
2023-03-26T20:05:15.371Z,26.48
2023-03-26T20:06:20.014Z,28.10
2023-03-26T20:07:35.307Z,31.00
2023-03-26T20:08:40.588Z,30.23
2023-03-26T20:09:44.104Z,44.10
2023-03-26T20:10:46.261Z,42.50
2023-03-26T20:11:48.425Z,42.20
2023-03-26T20:12:50.695Z,43.30
2023-03-26T20:13:52.880Z,44.60
2023-03-26T20:15:00.835Z,44.75
2023-03-26T20:16:10.583Z,40.25
2023-03-26T20:17:16.510Z,41.90
2023-03-26T20:18:19.025Z,42.78
2023-03-26T20:19:21.248Z,42.55
2023-03-26T20:20:27.560Z,40.90
2023-03-26T20:21:32.300Z,39.20
2023-03-26T20:22:34.420Z,32.55
2023-03-26T20:23:39.104Z,35.83
2023-03-26T20:24:41.574Z,35.35
2023-03-26T20:25:50.156Z,36.05
2023-03-26T20:26:52.423Z,38.83
2023-03-26T20:27:55.408Z,33.88
2023-03-26T20:28:58.333Z,30.60
2023-03-26T20:30:00.495Z,32.17
2023-03-26T20:31:02.908Z,28.88
2023-03-26T20:32:09.577Z,29.75
2023-03-26T20:33:17.931Z,27.58
2023-03-26T20:34:22.046Z,27.45
2023-03-26T20:35:37.698Z,28.90
2023-03-26T20:36:40.148Z,26.58
2023-03-26T20:37:42.419Z,28.40
2023-03-26T20:38:45.958Z,27.75
2023-03-26T20:39:48.101Z,27.35
2023-03-26T20:40:50.261Z,28.95
2023-03-26T20:41:54.428Z,29.63
2023-03-26T20:42:56.636Z,29.08
2023-03-26T20:44:03.798Z,30.98
2023-03-26T20:45:14.637Z,29.92
2023-03-26T20:46:18.983Z,30.63
2023-03-26T20:47:21.289Z,30.38
2023-03-26T20:48:26.616Z,30.00
2023-03-26T20:49:29.373Z,29.98